sensor_id;sensor_type;location;lat;lon;timestamp;temperature;humidity
8220;DHT22;4151;51.110;7.020;2024-01-16T00:01:12;0.90;99.90
8220;DHT22;4151;51.110;7.020;2024-01-16T00:03:39;0.90;99.90
8220;DHT22;4151;51.110;7.020;2024-01-16T00:06:05;0.90;99.90
8220;DHT22;4151;51.110;7.020;2024-01-16T00:08:32;0.90;99.90
8220;DHT22;4151;51.110;7.020;2024-01-16T00:10:57;1.00;99.90
8220;DHT22;4151;51.110;7.020;2024-01-16T00:13:23;1.00;99.90
8220;DHT22;4151;51.110;7.020;2024-01-16T00:15:48;1.00;99.90
8220;DHT22;4151;51.110;7.020;2024-01-16T00:18:15;1.00;99.90
8220;DHT22;4151;51.110;7.020;2024-01-16T00:20:40;1.00;99.90
8220;DHT22;4151;51.110;7.020;2024-01-16T00:23:06;0.90;99.90
8220;DHT22;4151;51.110;7.020;2024-01-16T00:25:32;1.00;99.90
8220;DHT22;4151;51.110;7.020;2024-01-16T00:27:57;1.00;99.90
8220;DHT22;4151;51.110;7.020;2024-01-16T00:30:23;1.00;99.90
8220;DHT22;4151;51.110;7.020;2024-01-16T00:32:48;1.00;99.90
8220;DHT22;4151;51.110;7.020;2024-01-16T00:35:14;1.00;99.90
8220;DHT22;4151;51.110;7.020;2024-01-16T00:37:39;1.00;99.90
8220;DHT22;4151;51.110;7.020;2024-01-16T00:40:05;1.00;99.90
8220;DHT22;4151;51.110;7.020;2024-01-16T00:42:34;1.00;99.90
8220;DHT22;4151;51.110;7.020;2024-01-16T00:44:59;1.00;99.90
8220;DHT22;4151;51.110;7.020;2024-01-16T00:47:25;1.00;99.90
8220;DHT22;4151;51.110;7.020;2024-01-16T00:49:50;1.00;99.90
8220;DHT22;4151;51.110;7.020;2024-01-16T00:52:16;1.00;99.90
8220;DHT22;4151;51.110;7.020;2024-01-16T00:54:42;1.00;99.90
8220;DHT22;4151;51.110;7.020;2024-01-16T00:57:08;1.00;99.90
8220;DHT22;4151;51.110;7.020;2024-01-16T00:59:34;1.00;99.90
8220;DHT22;4151;51.110;7.020;2024-01-16T01:02:00;1.00;99.90
8220;DHT22;4151;51.110;7.020;2024-01-16T01:04:25;1.00;99.90
8220;DHT22;4151;51.110;7.020;2024-01-16T01:06:51;1.00;99.90
8220;DHT22;4151;51.110;7.020;2024-01-16T01:09:17;1.00;99.90
8220;DHT22;4151;51.110;7.020;2024-01-16T01:11:42;1.00;99.90
8220;DHT22;4151;51.110;7.020;2024-01-16T01:14:08;1.00;99.90
8220;DHT22;4151;51.110;7.020;2024-01-16T01:16:34;1.00;99.90
8220;DHT22;4151;51.110;7.020;2024-01-16T01:18:59;1.00;99.90
8220;DHT22;4151;51.110;7.020;2024-01-16T01:21:25;0.90;99.90
8220;DHT22;4151;51.110;7.020;2024-01-16T01:23:51;1.00;99.90
8220;DHT22;4151;51.110;7.020;2024-01-16T01:26:16;0.90;99.90
8220;DHT22;4151;51.110;7.020;2024-01-16T01:28:44;0.90;99.90
8220;DHT22;4151;51.110;7.020;2024-01-16T01:31:12;0.90;99.90
8220;DHT22;4151;51.110;7.020;2024-01-16T01:33:39;0.90;99.90
8220;DHT22;4151;51.110;7.020;2024-01-16T01:36:05;0.90;99.90
8220;DHT22;4151;51.110;7.020;2024-01-16T01:38:30;0.90;99.90
8220;DHT22;4151;51.110;7.020;2024-01-16T01:40:56;0.90;99.90
8220;DHT22;4151;51.110;7.020;2024-01-16T01:43:25;0.90;99.90
8220;DHT22;4151;51.110;7.020;2024-01-16T01:46:27;0.90;99.90
8220;DHT22;4151;51.110;7.020;2024-01-16T01:48:53;0.90;99.90
8220;DHT22;4151;51.110;7.020;2024-01-16T01:51:19;0.90;99.90
8220;DHT22;4151;51.110;7.020;2024-01-16T01:53:48;0.90;99.90
8220;DHT22;4151;51.110;7.020;2024-01-16T01:56:17;0.80;99.90
8220;DHT22;4151;51.110;7.020;2024-01-16T01:58:44;0.80;99.90
8220;DHT22;4151;51.110;7.020;2024-01-16T02:01:11;0.80;99.90
8220;DHT22;4151;51.110;7.020;2024-01-16T02:03:43;0.80;99.90
8220;DHT22;4151;51.110;7.020;2024-01-16T02:06:10;0.80;99.90
8220;DHT22;4151;51.110;7.020;2024-01-16T02:08:36;0.80;99.90
8220;DHT22;4151;51.110;7.020;2024-01-16T02:11:01;0.80;99.90
8220;DHT22;4151;51.110;7.020;2024-01-16T02:13:28;0.90;99.90
8220;DHT22;4151;51.110;7.020;2024-01-16T02:15:53;0.90;99.90
8220;DHT22;4151;51.110;7.020;2024-01-16T02:18:19;0.90;99.90
8220;DHT22;4151;51.110;7.020;2024-01-16T02:20:46;0.80;99.90
8220;DHT22;4151;51.110;7.020;2024-01-16T02:23:14;0.80;99.90
8220;DHT22;4151;51.110;7.020;2024-01-16T02:25:43;0.90;99.90
8220;DHT22;4151;51.110;7.020;2024-01-16T02:28:09;0.80;99.90
8220;DHT22;4151;51.110;7.020;2024-01-16T02:30:35;0.80;99.90
8220;DHT22;4151;51.110;7.020;2024-01-16T02:33:00;0.80;99.90
8220;DHT22;4151;51.110;7.020;2024-01-16T02:35:26;0.90;99.90
8220;DHT22;4151;51.110;7.020;2024-01-16T02:37:51;0.90;99.90
8220;DHT22;4151;51.110;7.020;2024-01-16T02:40:17;0.90;99.90
8220;DHT22;4151;51.110;7.020;2024-01-16T02:42:43;0.80;99.90
8220;DHT22;4151;51.110;7.020;2024-01-16T02:45:09;0.80;99.90
8220;DHT22;4151;51.110;7.020;2024-01-16T02:47:34;0.80;99.90
8220;DHT22;4151;51.110;7.020;2024-01-16T02:50:00;0.80;99.90
8220;DHT22;4151;51.110;7.020;2024-01-16T02:52:26;0.80;99.90
8220;DHT22;4151;51.110;7.020;2024-01-16T02:54:52;0.80;99.90
8220;DHT22;4151;51.110;7.020;2024-01-16T02:57:17;0.80;99.90
8220;DHT22;4151;51.110;7.020;2024-01-16T02:59:44;0.80;99.90
8220;DHT22;4151;51.110;7.020;2024-01-16T03:02:09;0.80;99.90
8220;DHT22;4151;51.110;7.020;2024-01-16T03:04:35;0.80;99.90
8220;DHT22;4151;51.110;7.020;2024-01-16T03:07:00;0.80;99.90
8220;DHT22;4151;51.110;7.020;2024-01-16T03:09:26;0.80;99.90
8220;DHT22;4151;51.110;7.020;2024-01-16T03:11:51;0.80;99.90
8220;DHT22;4151;51.110;7.020;2024-01-16T03:14:17;0.80;99.90
8220;DHT22;4151;51.110;7.020;2024-01-16T03:16:43;0.80;99.90
8220;DHT22;4151;51.110;7.020;2024-01-16T03:19:09;0.80;99.90
8220;DHT22;4151;51.110;7.020;2024-01-16T03:21:35;0.80;99.90
8220;DHT22;4151;51.110;7.020;2024-01-16T03:24:00;0.80;99.90
8220;DHT22;4151;51.110;7.020;2024-01-16T03:26:26;0.70;99.90
8220;DHT22;4151;51.110;7.020;2024-01-16T03:28:51;0.80;99.90
8220;DHT22;4151;51.110;7.020;2024-01-16T03:31:17;0.70;99.90
8220;DHT22;4151;51.110;7.020;2024-01-16T03:33:44;0.70;99.90
8220;DHT22;4151;51.110;7.020;2024-01-16T03:36:11;0.70;99.90
8220;DHT22;4151;51.110;7.020;2024-01-16T03:38:38;0.70;99.90
8220;DHT22;4151;51.110;7.020;2024-01-16T03:41:04;0.70;99.90
8220;DHT22;4151;51.110;7.020;2024-01-16T03:43:32;0.70;99.90
8220;DHT22;4151;51.110;7.020;2024-01-16T03:45:58;0.70;99.90
8220;DHT22;4151;51.110;7.020;2024-01-16T03:48:24;0.70;99.90
8220;DHT22;4151;51.110;7.020;2024-01-16T03:50:50;0.70;99.90
8220;DHT22;4151;51.110;7.020;2024-01-16T03:53:15;0.70;99.90
8220;DHT22;4151;51.110;7.020;2024-01-16T03:55:41;0.70;99.90
8220;DHT22;4151;51.110;7.020;2024-01-16T03:58:06;0.70;99.90
8220;DHT22;4151;51.110;7.020;2024-01-16T04:00:32;0.70;99.90
8220;DHT22;4151;51.110;7.020;2024-01-16T04:02:58;0.70;99.90
8220;DHT22;4151;51.110;7.020;2024-01-16T04:05:24;0.70;99.90
8220;DHT22;4151;51.110;7.020;2024-01-16T04:07:49;0.70;99.90
8220;DHT22;4151;51.110;7.020;2024-01-16T04:10:15;0.70;99.90
8220;DHT22;4151;51.110;7.020;2024-01-16T04:12:40;0.70;99.90
8220;DHT22;4151;51.110;7.020;2024-01-16T04:15:06;0.70;99.90
8220;DHT22;4151;51.110;7.020;2024-01-16T04:17:32;0.70;99.90
8220;DHT22;4151;51.110;7.020;2024-01-16T04:19:57;0.70;99.90
8220;DHT22;4151;51.110;7.020;2024-01-16T04:22:23;0.70;99.90
8220;DHT22;4151;51.110;7.020;2024-01-16T04:24:48;0.70;99.90
8220;DHT22;4151;51.110;7.020;2024-01-16T04:27:14;0.70;99.90
8220;DHT22;4151;51.110;7.020;2024-01-16T04:29:40;0.70;99.90
8220;DHT22;4151;51.110;7.020;2024-01-16T04:32:05;0.70;99.90
8220;DHT22;4151;51.110;7.020;2024-01-16T04:34:31;0.70;99.90
8220;DHT22;4151;51.110;7.020;2024-01-16T04:36:56;0.60;99.90
8220;DHT22;4151;51.110;7.020;2024-01-16T04:39:22;0.60;99.90
8220;DHT22;4151;51.110;7.020;2024-01-16T04:41:49;0.70;99.90
8220;DHT22;4151;51.110;7.020;2024-01-16T04:44:14;0.70;99.90
8220;DHT22;4151;51.110;7.020;2024-01-16T04:46:40;0.70;99.90
8220;DHT22;4151;51.110;7.020;2024-01-16T04:49:05;0.70;99.90
8220;DHT22;4151;51.110;7.020;2024-01-16T04:51:31;0.70;99.90
8220;DHT22;4151;51.110;7.020;2024-01-16T04:53:56;0.70;99.90
8220;DHT22;4151;51.110;7.020;2024-01-16T04:56:22;0.60;99.90
8220;DHT22;4151;51.110;7.020;2024-01-16T04:58:47;0.60;99.90
8220;DHT22;4151;51.110;7.020;2024-01-16T05:01:13;0.60;99.90
8220;DHT22;4151;51.110;7.020;2024-01-16T05:03:38;0.60;99.90
8220;DHT22;4151;51.110;7.020;2024-01-16T05:06:04;0.60;99.90
8220;DHT22;4151;51.110;7.020;2024-01-16T05:08:30;0.60;99.90
8220;DHT22;4151;51.110;7.020;2024-01-16T05:10:56;0.60;99.90
8220;DHT22;4151;51.110;7.020;2024-01-16T05:13:22;0.60;99.90
8220;DHT22;4151;51.110;7.020;2024-01-16T05:15:47;0.60;99.90
8220;DHT22;4151;51.110;7.020;2024-01-16T05:18:14;0.60;99.90
8220;DHT22;4151;51.110;7.020;2024-01-16T05:20:40;0.60;99.90
8220;DHT22;4151;51.110;7.020;2024-01-16T05:23:05;0.60;99.90
8220;DHT22;4151;51.110;7.020;2024-01-16T05:25:31;0.60;99.90
8220;DHT22;4151;51.110;7.020;2024-01-16T05:27:56;0.70;99.90
8220;DHT22;4151;51.110;7.020;2024-01-16T05:30:22;0.60;99.90
8220;DHT22;4151;51.110;7.020;2024-01-16T05:32:47;0.60;99.90
8220;DHT22;4151;51.110;7.020;2024-01-16T05:35:13;0.60;99.90
8220;DHT22;4151;51.110;7.020;2024-01-16T05:37:39;0.60;99.90
8220;DHT22;4151;51.110;7.020;2024-01-16T05:40:05;0.60;99.90
8220;DHT22;4151;51.110;7.020;2024-01-16T05:42:32;0.60;99.90
8220;DHT22;4151;51.110;7.020;2024-01-16T05:44:58;0.50;99.90
8220;DHT22;4151;51.110;7.020;2024-01-16T05:47:23;0.50;99.90
8220;DHT22;4151;51.110;7.020;2024-01-16T05:49:53;0.50;99.90
8220;DHT22;4151;51.110;7.020;2024-01-16T05:52:19;0.50;99.90
8220;DHT22;4151;51.110;7.020;2024-01-16T05:54:44;0.50;99.90
8220;DHT22;4151;51.110;7.020;2024-01-16T05:57:10;0.40;99.90
8220;DHT22;4151;51.110;7.020;2024-01-16T05:59:35;0.40;99.90
8220;DHT22;4151;51.110;7.020;2024-01-16T06:02:01;0.40;99.90
8220;DHT22;4151;51.110;7.020;2024-01-16T06:04:26;0.40;99.90
8220;DHT22;4151;51.110;7.020;2024-01-16T06:06:52;0.40;99.90
8220;DHT22;4151;51.110;7.020;2024-01-16T06:09:17;0.40;99.90
8220;DHT22;4151;51.110;7.020;2024-01-16T06:11:44;0.40;99.90
8220;DHT22;4151;51.110;7.020;2024-01-16T06:14:09;0.40;99.90
8220;DHT22;4151;51.110;7.020;2024-01-16T06:16:37;0.40;99.90
8220;DHT22;4151;51.110;7.020;2024-01-16T06:19:02;0.40;99.90
8220;DHT22;4151;51.110;7.020;2024-01-16T06:21:28;0.50;99.90
8220;DHT22;4151;51.110;7.020;2024-01-16T06:23:54;0.40;99.90
8220;DHT22;4151;51.110;7.020;2024-01-16T06:26:19;0.40;99.90
8220;DHT22;4151;51.110;7.020;2024-01-16T06:28:45;0.40;99.90
8220;DHT22;4151;51.110;7.020;2024-01-16T06:31:10;0.40;99.90
8220;DHT22;4151;51.110;7.020;2024-01-16T06:33:37;0.40;99.90
8220;DHT22;4151;51.110;7.020;2024-01-16T06:36:03;0.40;99.90
8220;DHT22;4151;51.110;7.020;2024-01-16T06:38:31;0.40;99.90
8220;DHT22;4151;51.110;7.020;2024-01-16T06:40:57;0.40;99.90
8220;DHT22;4151;51.110;7.020;2024-01-16T06:43:23;0.40;99.90
8220;DHT22;4151;51.110;7.020;2024-01-16T06:45:49;0.40;99.90
8220;DHT22;4151;51.110;7.020;2024-01-16T06:48:15;0.30;99.90
8220;DHT22;4151;51.110;7.020;2024-01-16T06:50:41;0.30;99.90
8220;DHT22;4151;51.110;7.020;2024-01-16T06:53:07;0.40;99.90
8220;DHT22;4151;51.110;7.020;2024-01-16T06:55:32;0.40;99.90
8220;DHT22;4151;51.110;7.020;2024-01-16T06:57:58;0.40;99.90
8220;DHT22;4151;51.110;7.020;2024-01-16T07:00:23;0.40;99.90
8220;DHT22;4151;51.110;7.020;2024-01-16T07:02:52;0.40;99.90
8220;DHT22;4151;51.110;7.020;2024-01-16T07:05:17;0.40;99.90
8220;DHT22;4151;51.110;7.020;2024-01-16T07:07:43;0.40;99.90
8220;DHT22;4151;51.110;7.020;2024-01-16T07:10:08;0.40;99.90
8220;DHT22;4151;51.110;7.020;2024-01-16T07:12:39;0.50;99.90
8220;DHT22;4151;51.110;7.020;2024-01-16T07:15:05;0.50;99.90
8220;DHT22;4151;51.110;7.020;2024-01-16T07:17:31;0.50;99.90
8220;DHT22;4151;51.110;7.020;2024-01-16T07:19:56;0.50;99.90
8220;DHT22;4151;51.110;7.020;2024-01-16T07:22:23;0.50;99.90
8220;DHT22;4151;51.110;7.020;2024-01-16T07:24:49;0.50;99.90
8220;DHT22;4151;51.110;7.020;2024-01-16T07:27:14;0.50;99.90
8220;DHT22;4151;51.110;7.020;2024-01-16T07:29:40;0.50;99.90
8220;DHT22;4151;51.110;7.020;2024-01-16T07:32:07;0.50;99.90
8220;DHT22;4151;51.110;7.020;2024-01-16T07:34:32;0.60;99.90
8220;DHT22;4151;51.110;7.020;2024-01-16T07:36:58;0.60;99.90
8220;DHT22;4151;51.110;7.020;2024-01-16T07:39:24;0.60;99.90
8220;DHT22;4151;51.110;7.020;2024-01-16T07:41:49;0.60;99.90
8220;DHT22;4151;51.110;7.020;2024-01-16T07:44:15;0.60;99.90
8220;DHT22;4151;51.110;7.020;2024-01-16T07:46:40;0.60;99.90
8220;DHT22;4151;51.110;7.020;2024-01-16T07:49:06;0.60;99.90
8220;DHT22;4151;51.110;7.020;2024-01-16T07:51:31;0.60;99.90
8220;DHT22;4151;51.110;7.020;2024-01-16T07:54:05;0.60;99.90
8220;DHT22;4151;51.110;7.020;2024-01-16T07:56:35;0.60;99.90
8220;DHT22;4151;51.110;7.020;2024-01-16T07:59:01;0.70;99.90
8220;DHT22;4151;51.110;7.020;2024-01-16T08:01:29;0.70;99.90
8220;DHT22;4151;51.110;7.020;2024-01-16T08:03:56;0.70;99.90
8220;DHT22;4151;51.110;7.020;2024-01-16T08:06:22;0.70;99.90
8220;DHT22;4151;51.110;7.020;2024-01-16T08:08:48;0.80;99.90
8220;DHT22;4151;51.110;7.020;2024-01-16T08:11:14;0.80;99.90
8220;DHT22;4151;51.110;7.020;2024-01-16T08:13:40;0.80;99.90
8220;DHT22;4151;51.110;7.020;2024-01-16T08:16:06;0.90;99.90
8220;DHT22;4151;51.110;7.020;2024-01-16T08:18:32;0.90;99.90
8220;DHT22;4151;51.110;7.020;2024-01-16T08:20:57;0.90;99.90
8220;DHT22;4151;51.110;7.020;2024-01-16T08:23:23;0.90;99.90
8220;DHT22;4151;51.110;7.020;2024-01-16T08:25:49;0.90;99.90
8220;DHT22;4151;51.110;7.020;2024-01-16T08:28:19;0.90;99.90
8220;DHT22;4151;51.110;7.020;2024-01-16T08:30:45;0.80;99.90
8220;DHT22;4151;51.110;7.020;2024-01-16T08:33:11;0.80;99.90
8220;DHT22;4151;51.110;7.020;2024-01-16T08:35:37;0.80;99.90
8220;DHT22;4151;51.110;7.020;2024-01-16T08:38:03;0.80;99.90
8220;DHT22;4151;51.110;7.020;2024-01-16T08:40:28;0.80;99.90
8220;DHT22;4151;51.110;7.020;2024-01-16T08:42:54;0.70;99.90
8220;DHT22;4151;51.110;7.020;2024-01-16T08:45:23;0.70;99.90
8220;DHT22;4151;51.110;7.020;2024-01-16T08:47:49;0.80;99.90
8220;DHT22;4151;51.110;7.020;2024-01-16T08:50:17;0.80;99.90
8220;DHT22;4151;51.110;7.020;2024-01-16T08:52:43;0.90;99.90
8220;DHT22;4151;51.110;7.020;2024-01-16T08:55:09;0.90;99.90
8220;DHT22;4151;51.110;7.020;2024-01-16T08:57:36;1.00;99.90
8220;DHT22;4151;51.110;7.020;2024-01-16T09:00:03;0.90;99.90
8220;DHT22;4151;51.110;7.020;2024-01-16T09:02:29;0.90;99.90
8220;DHT22;4151;51.110;7.020;2024-01-16T09:04:56;1.00;99.90
8220;DHT22;4151;51.110;7.020;2024-01-16T09:07:22;0.90;99.90
8220;DHT22;4151;51.110;7.020;2024-01-16T09:09:48;1.00;99.90
8220;DHT22;4151;51.110;7.020;2024-01-16T09:12:14;1.10;99.90
8220;DHT22;4151;51.110;7.020;2024-01-16T09:14:40;1.30;99.90
8220;DHT22;4151;51.110;7.020;2024-01-16T09:17:06;1.30;99.90
8220;DHT22;4151;51.110;7.020;2024-01-16T09:19:32;1.30;99.90
8220;DHT22;4151;51.110;7.020;2024-01-16T09:21:57;1.30;99.90
8220;DHT22;4151;51.110;7.020;2024-01-16T09:24:23;1.40;99.90
8220;DHT22;4151;51.110;7.020;2024-01-16T09:26:49;1.40;99.90
8220;DHT22;4151;51.110;7.020;2024-01-16T09:29:14;1.40;99.90
8220;DHT22;4151;51.110;7.020;2024-01-16T09:31:40;1.30;99.90
8220;DHT22;4151;51.110;7.020;2024-01-16T09:34:06;1.30;99.90
8220;DHT22;4151;51.110;7.020;2024-01-16T09:36:32;1.40;99.90
8220;DHT22;4151;51.110;7.020;2024-01-16T09:38:57;1.30;99.90
8220;DHT22;4151;51.110;7.020;2024-01-16T09:41:23;1.40;99.90
8220;DHT22;4151;51.110;7.020;2024-01-16T09:43:49;1.30;99.90
8220;DHT22;4151;51.110;7.020;2024-01-16T09:46:17;1.30;99.90
8220;DHT22;4151;51.110;7.020;2024-01-16T09:48:46;1.30;99.90
8220;DHT22;4151;51.110;7.020;2024-01-16T09:51:12;1.30;99.90
8220;DHT22;4151;51.110;7.020;2024-01-16T09:53:42;1.30;99.90
8220;DHT22;4151;51.110;7.020;2024-01-16T09:56:14;1.30;99.90
8220;DHT22;4151;51.110;7.020;2024-01-16T09:58:41;1.10;99.90
8220;DHT22;4151;51.110;7.020;2024-01-16T10:01:08;1.10;99.90
8220;DHT22;4151;51.110;7.020;2024-01-16T10:03:34;1.10;99.90
8220;DHT22;4151;51.110;7.020;2024-01-16T10:06:05;1.10;99.90
8220;DHT22;4151;51.110;7.020;2024-01-16T10:08:31;1.10;99.90
8220;DHT22;4151;51.110;7.020;2024-01-16T10:10:58;1.10;99.90
8220;DHT22;4151;51.110;7.020;2024-01-16T10:13:23;1.20;99.90
8220;DHT22;4151;51.110;7.020;2024-01-16T10:15:50;1.20;99.90
8220;DHT22;4151;51.110;7.020;2024-01-16T10:18:23;1.10;99.90
8220;DHT22;4151;51.110;7.020;2024-01-16T10:20:52;1.20;99.90
8220;DHT22;4151;51.110;7.020;2024-01-16T10:23:32;1.10;99.90
8220;DHT22;4151;51.110;7.020;2024-01-16T10:26:09;1.20;99.90
8220;DHT22;4151;51.110;7.020;2024-01-16T10:28:39;1.10;99.90
8220;DHT22;4151;51.110;7.020;2024-01-16T10:31:09;1.20;99.90
8220;DHT22;4151;51.110;7.020;2024-01-16T10:33:35;1.10;99.90
8220;DHT22;4151;51.110;7.020;2024-01-16T10:36:10;1.10;99.90
8220;DHT22;4151;51.110;7.020;2024-01-16T10:38:36;1.10;99.90
8220;DHT22;4151;51.110;7.020;2024-01-16T10:41:16;1.10;99.90
8220;DHT22;4151;51.110;7.020;2024-01-16T10:43:47;1.20;99.90
8220;DHT22;4151;51.110;7.020;2024-01-16T10:46:17;1.20;99.90
8220;DHT22;4151;51.110;7.020;2024-01-16T10:49:04;1.20;99.90
8220;DHT22;4151;51.110;7.020;2024-01-16T10:51:31;1.30;99.90
8220;DHT22;4151;51.110;7.020;2024-01-16T10:53:59;1.50;99.90
8220;DHT22;4151;51.110;7.020;2024-01-16T10:56:27;1.60;99.90
8220;DHT22;4151;51.110;7.020;2024-01-16T10:59:06;1.60;99.90
8220;DHT22;4151;51.110;7.020;2024-01-16T11:01:35;1.50;99.90
8220;DHT22;4151;51.110;7.020;2024-01-16T11:04:01;1.50;99.90
8220;DHT22;4151;51.110;7.020;2024-01-16T11:06:28;1.50;99.90
8220;DHT22;4151;51.110;7.020;2024-01-16T11:08:56;1.50;99.90
8220;DHT22;4151;51.110;7.020;2024-01-16T11:11:23;1.60;99.90
8220;DHT22;4151;51.110;7.020;2024-01-16T11:13:50;1.50;99.90
8220;DHT22;4151;51.110;7.020;2024-01-16T11:16:16;1.60;99.90
8220;DHT22;4151;51.110;7.020;2024-01-16T11:18:42;1.70;99.90
8220;DHT22;4151;51.110;7.020;2024-01-16T11:21:13;1.70;99.90
8220;DHT22;4151;51.110;7.020;2024-01-16T11:23:39;1.70;99.90
8220;DHT22;4151;51.110;7.020;2024-01-16T11:28:53;1.90;99.90
8220;DHT22;4151;51.110;7.020;2024-01-16T11:31:29;2.00;99.90
8220;DHT22;4151;51.110;7.020;2024-01-16T11:33:55;2.40;99.90
8220;DHT22;4151;51.110;7.020;2024-01-16T11:39:17;2.80;99.90
8220;DHT22;4151;51.110;7.020;2024-01-16T11:41:56;2.50;99.90
8220;DHT22;4151;51.110;7.020;2024-01-16T11:47:07;2.00;99.90
8220;DHT22;4151;51.110;7.020;2024-01-16T11:49:37;2.00;99.90
8220;DHT22;4151;51.110;7.020;2024-01-16T11:52:02;1.60;99.90
8220;DHT22;4151;51.110;7.020;2024-01-16T11:54:28;1.60;99.90
8220;DHT22;4151;51.110;7.020;2024-01-16T12:00:00;1.70;99.90
8220;DHT22;4151;51.110;7.020;2024-01-16T12:02:46;1.90;99.90
8220;DHT22;4151;51.110;7.020;2024-01-16T12:05:14;2.10;99.90
8220;DHT22;4151;51.110;7.020;2024-01-16T12:07:46;2.40;99.90
8220;DHT22;4151;51.110;7.020;2024-01-16T12:10:15;3.20;99.90
8220;DHT22;4151;51.110;7.020;2024-01-16T12:12:41;3.90;99.90
8220;DHT22;4151;51.110;7.020;2024-01-16T12:15:13;4.50;99.90
8220;DHT22;4151;51.110;7.020;2024-01-16T12:17:57;5.10;99.90
8220;DHT22;4151;51.110;7.020;2024-01-16T12:20:25;5.70;99.90
8220;DHT22;4151;51.110;7.020;2024-01-16T12:23:03;4.80;99.90
8220;DHT22;4151;51.110;7.020;2024-01-16T12:25:32;4.10;99.90
8220;DHT22;4151;51.110;7.020;2024-01-16T12:28:05;4.00;99.90
8220;DHT22;4151;51.110;7.020;2024-01-16T12:30:33;3.90;99.90
8220;DHT22;4151;51.110;7.020;2024-01-16T12:33:10;4.00;99.90
8220;DHT22;4151;51.110;7.020;2024-01-16T12:35:37;4.30;99.90
8220;DHT22;4151;51.110;7.020;2024-01-16T12:38:04;4.50;99.90
8220;DHT22;4151;51.110;7.020;2024-01-16T12:40:37;4.10;99.90
8220;DHT22;4151;51.110;7.020;2024-01-16T12:43:04;4.00;99.90
8220;DHT22;4151;51.110;7.020;2024-01-16T12:45:31;4.00;99.90
8220;DHT22;4151;51.110;7.020;2024-01-16T12:48:00;4.20;99.90
8220;DHT22;4151;51.110;7.020;2024-01-16T12:50:29;4.60;99.90
8220;DHT22;4151;51.110;7.020;2024-01-16T12:55:28;4.70;99.90
8220;DHT22;4151;51.110;7.020;2024-01-16T12:58:21;4.40;99.90
8220;DHT22;4151;51.110;7.020;2024-01-16T13:00:52;4.50;99.90
8220;DHT22;4151;51.110;7.020;2024-01-16T13:03:23;4.50;99.90
8220;DHT22;4151;51.110;7.020;2024-01-16T13:05:56;4.80;99.90
8220;DHT22;4151;51.110;7.020;2024-01-16T13:08:22;5.00;99.90
8220;DHT22;4151;51.110;7.020;2024-01-16T13:11:06;5.50;99.90
8220;DHT22;4151;51.110;7.020;2024-01-16T13:13:33;6.00;99.90
8220;DHT22;4151;51.110;7.020;2024-01-16T13:16:00;5.80;99.90
8220;DHT22;4151;51.110;7.020;2024-01-16T13:18:29;4.60;99.90
8220;DHT22;4151;51.110;7.020;2024-01-16T13:20:59;3.90;99.90
8220;DHT22;4151;51.110;7.020;2024-01-16T13:23:25;3.60;99.90
8220;DHT22;4151;51.110;7.020;2024-01-16T13:25:52;3.20;99.90
8220;DHT22;4151;51.110;7.020;2024-01-16T13:28:19;2.90;99.90
8220;DHT22;4151;51.110;7.020;2024-01-16T13:30:46;2.70;99.90
8220;DHT22;4151;51.110;7.020;2024-01-16T13:33:12;3.30;99.90
8220;DHT22;4151;51.110;7.020;2024-01-16T13:35:40;3.70;99.90
8220;DHT22;4151;51.110;7.020;2024-01-16T13:38:07;4.30;99.90
8220;DHT22;4151;51.110;7.020;2024-01-16T13:40:33;4.30;99.90
8220;DHT22;4151;51.110;7.020;2024-01-16T13:42:59;4.20;99.90
8220;DHT22;4151;51.110;7.020;2024-01-16T13:45:26;4.00;99.90
8220;DHT22;4151;51.110;7.020;2024-01-16T13:47:51;4.80;99.90
8220;DHT22;4151;51.110;7.020;2024-01-16T13:50:17;5.30;99.90
8220;DHT22;4151;51.110;7.020;2024-01-16T13:52:43;4.80;99.90
8220;DHT22;4151;51.110;7.020;2024-01-16T13:55:09;4.70;99.90
8220;DHT22;4151;51.110;7.020;2024-01-16T13:57:35;4.60;99.90
8220;DHT22;4151;51.110;7.020;2024-01-16T14:00:08;4.40;99.90
8220;DHT22;4151;51.110;7.020;2024-01-16T14:02:39;4.10;99.90
8220;DHT22;4151;51.110;7.020;2024-01-16T14:05:09;4.20;99.90
8220;DHT22;4151;51.110;7.020;2024-01-16T14:07:43;4.50;99.90
8220;DHT22;4151;51.110;7.020;2024-01-16T14:10:12;4.60;99.90
8220;DHT22;4151;51.110;7.020;2024-01-16T14:12:39;4.50;99.90
8220;DHT22;4151;51.110;7.020;2024-01-16T14:15:05;4.20;99.90
8220;DHT22;4151;51.110;7.020;2024-01-16T14:17:35;3.70;99.90
8220;DHT22;4151;51.110;7.020;2024-01-16T14:20:01;3.40;99.90
8220;DHT22;4151;51.110;7.020;2024-01-16T14:22:26;2.90;99.90
8220;DHT22;4151;51.110;7.020;2024-01-16T14:24:53;2.70;99.90
8220;DHT22;4151;51.110;7.020;2024-01-16T14:27:18;2.70;99.90
8220;DHT22;4151;51.110;7.020;2024-01-16T14:29:44;2.70;99.90
8220;DHT22;4151;51.110;7.020;2024-01-16T14:32:09;2.80;99.90
8220;DHT22;4151;51.110;7.020;2024-01-16T14:34:35;3.00;99.90
8220;DHT22;4151;51.110;7.020;2024-01-16T14:37:01;3.00;99.90
8220;DHT22;4151;51.110;7.020;2024-01-16T14:39:26;3.00;99.90
8220;DHT22;4151;51.110;7.020;2024-01-16T14:41:56;2.90;99.90
8220;DHT22;4151;51.110;7.020;2024-01-16T14:44:21;2.60;99.90
8220;DHT22;4151;51.110;7.020;2024-01-16T14:46:47;2.50;99.90
8220;DHT22;4151;51.110;7.020;2024-01-16T14:49:12;2.40;99.90
8220;DHT22;4151;51.110;7.020;2024-01-16T14:51:38;2.40;99.90
8220;DHT22;4151;51.110;7.020;2024-01-16T14:54:04;2.30;99.90
8220;DHT22;4151;51.110;7.020;2024-01-16T14:56:30;2.30;99.90
8220;DHT22;4151;51.110;7.020;2024-01-16T14:58:57;2.10;99.90
8220;DHT22;4151;51.110;7.020;2024-01-16T15:01:23;1.90;99.90
8220;DHT22;4151;51.110;7.020;2024-01-16T15:03:48;1.90;99.90
8220;DHT22;4151;51.110;7.020;2024-01-16T15:06:14;2.00;99.90
8220;DHT22;4151;51.110;7.020;2024-01-16T15:08:40;2.20;99.90
8220;DHT22;4151;51.110;7.020;2024-01-16T15:11:06;2.30;99.90
8220;DHT22;4151;51.110;7.020;2024-01-16T15:13:32;2.50;99.90
8220;DHT22;4151;51.110;7.020;2024-01-16T15:15:58;2.50;99.90
8220;DHT22;4151;51.110;7.020;2024-01-16T15:18:24;2.80;99.90
8220;DHT22;4151;51.110;7.020;2024-01-16T15:20:50;2.80;99.90
8220;DHT22;4151;51.110;7.020;2024-01-16T15:23:15;2.80;99.90
8220;DHT22;4151;51.110;7.020;2024-01-16T15:25:41;2.70;99.90
8220;DHT22;4151;51.110;7.020;2024-01-16T15:28:06;2.90;99.90
8220;DHT22;4151;51.110;7.020;2024-01-16T15:30:32;2.90;99.90
8220;DHT22;4151;51.110;7.020;2024-01-16T15:33:02;2.90;99.90
8220;DHT22;4151;51.110;7.020;2024-01-16T15:35:29;2.60;99.90
8220;DHT22;4151;51.110;7.020;2024-01-16T15:37:56;2.60;99.90
8220;DHT22;4151;51.110;7.020;2024-01-16T15:40:21;2.60;99.90
8220;DHT22;4151;51.110;7.020;2024-01-16T15:42:48;2.10;99.90
8220;DHT22;4151;51.110;7.020;2024-01-16T15:45:14;1.90;99.90
8220;DHT22;4151;51.110;7.020;2024-01-16T15:47:40;1.70;99.90
8220;DHT22;4151;51.110;7.020;2024-01-16T15:50:07;1.50;99.90
8220;DHT22;4151;51.110;7.020;2024-01-16T15:52:33;1.30;99.90
8220;DHT22;4151;51.110;7.020;2024-01-16T15:54:59;1.00;99.90
8220;DHT22;4151;51.110;7.020;2024-01-16T15:57:25;0.80;99.90
8220;DHT22;4151;51.110;7.020;2024-01-16T15:59:50;0.70;99.90
8220;DHT22;4151;51.110;7.020;2024-01-16T16:02:16;0.60;99.90
8220;DHT22;4151;51.110;7.020;2024-01-16T16:04:42;0.50;99.90
8220;DHT22;4151;51.110;7.020;2024-01-16T16:07:08;0.40;99.90
8220;DHT22;4151;51.110;7.020;2024-01-16T16:09:34;0.30;99.90
8220;DHT22;4151;51.110;7.020;2024-01-16T16:12:01;0.30;99.90
8220;DHT22;4151;51.110;7.020;2024-01-16T16:14:30;0.20;99.90
8220;DHT22;4151;51.110;7.020;2024-01-16T16:17:00;0.10;99.90
8220;DHT22;4151;51.110;7.020;2024-01-16T16:19:28;0.10;99.90
8220;DHT22;4151;51.110;7.020;2024-01-16T16:21:54;0.10;99.90
8220;DHT22;4151;51.110;7.020;2024-01-16T16:24:19;0.00;99.90
8220;DHT22;4151;51.110;7.020;2024-01-16T16:26:45;0.00;99.90
8220;DHT22;4151;51.110;7.020;2024-01-16T16:29:12;-0.10;99.90